createdAt,value
2022-09-24T00:01:35.078Z,9.15
2022-09-24T00:04:07.974Z,11.07
2022-09-24T00:06:38.508Z,10.98
2022-09-24T00:09:05.223Z,10.90
2022-09-24T00:11:32.047Z,9.88
2022-09-24T00:13:58.686Z,10.23
2022-09-24T00:16:28.307Z,12.27
2022-09-24T00:18:54.914Z,10.82
2022-09-24T00:21:24.616Z,13.05
2022-09-24T00:23:53.470Z,10.98
2022-09-24T00:26:38.841Z,13.15
2022-09-24T00:29:07.172Z,7.55
2022-09-24T00:31:33.925Z,10.02
2022-09-24T00:34:01.471Z,8.48
2022-09-24T00:36:28.063Z,10.90
2022-09-24T00:38:57.900Z,8.13
2022-09-24T00:41:29.028Z,8.82
2022-09-24T00:43:56.120Z,19.55
2022-09-24T00:46:25.778Z,10.90
2022-09-24T00:48:57.301Z,8.30
2022-09-24T00:51:26.640Z,9.35
2022-09-24T00:54:04.518Z,15.60
2022-09-24T00:56:36.512Z,10.38
2022-09-24T00:59:06.420Z,8.35
2022-09-24T01:01:33.153Z,10.75
2022-09-24T01:04:01.641Z,10.60
2022-09-24T01:06:28.383Z,9.13
2022-09-24T01:08:56.618Z,8.05
2022-09-24T01:11:40.510Z,10.25
2022-09-24T01:14:26.655Z,8.77
2022-09-24T01:17:14.210Z,16.05
2022-09-24T01:20:13.181Z,6.55
2022-09-24T01:22:47.445Z,7.70
2022-09-24T01:25:36.268Z,9.65
2022-09-24T01:28:50.083Z,8.35
2022-09-24T01:31:25.130Z,7.70
2022-09-24T01:36:22.583Z,7.80
2022-09-24T01:38:52.553Z,8.80
2022-09-24T01:41:19.841Z,8.60
2022-09-24T01:43:46.313Z,12.23
2022-09-24T01:46:16.879Z,7.57
2022-09-24T01:48:43.445Z,8.57
2022-09-24T01:51:25.054Z,14.85
2022-09-24T01:53:57.505Z,8.88
2022-09-24T01:56:32.095Z,9.20
2022-09-24T01:59:09.287Z,12.07
2022-09-24T02:01:44.322Z,11.52
2022-09-24T02:04:16.997Z,14.63
2022-09-24T02:06:52.922Z,12.50
2022-09-24T02:09:33.765Z,12.18
2022-09-24T02:12:07.790Z,10.77
2022-09-24T02:14:40.657Z,9.48
2022-09-24T02:17:07.419Z,13.52
2022-09-24T02:19:37.825Z,8.77
2022-09-24T02:22:07.951Z,9.48
2022-09-24T02:24:47.625Z,13.77
2022-09-24T02:27:14.094Z,12.55
2022-09-24T02:29:40.570Z,9.13
2022-09-24T02:32:10.018Z,11.18
2022-09-24T02:34:41.888Z,13.05
2022-09-24T02:37:10.811Z,11.18
2022-09-24T02:39:37.715Z,8.55
2022-09-24T02:42:05.980Z,10.27
2022-09-24T02:44:33.716Z,11.85
2022-09-24T02:47:00.838Z,17.33
2022-09-24T02:49:27.520Z,11.45
2022-09-24T02:51:54.523Z,15.98
2022-09-24T02:54:22.100Z,9.25
2022-09-24T02:56:48.539Z,16.83
2022-09-24T02:59:15.023Z,9.85
2022-09-24T03:01:41.688Z,15.55
2022-09-24T03:04:08.314Z,11.20
2022-09-24T03:06:34.941Z,14.57
2022-09-24T03:09:03.223Z,11.75
2022-09-24T03:11:31.354Z,17.15
2022-09-24T03:13:57.915Z,18.65
2022-09-24T03:16:24.500Z,17.83
2022-09-24T03:18:51.340Z,16.58
2022-09-24T03:21:19.930Z,17.58
2022-09-24T03:23:46.889Z,14.55
2022-09-24T03:26:13.769Z,13.40
2022-09-24T03:28:40.531Z,17.58
2022-09-24T03:31:07.889Z,17.67
2022-09-24T03:33:45.340Z,20.00
2022-09-24T03:36:17.967Z,23.33
2022-09-24T03:38:46.016Z,17.58
2022-09-24T03:41:13.986Z,24.25
2022-09-24T03:43:41.058Z,20.50
2022-09-24T03:46:08.799Z,24.50
2022-09-24T03:48:36.989Z,16.70
2022-09-24T03:51:14.794Z,19.48
2022-09-24T03:53:41.643Z,16.60
2022-09-24T03:56:08.657Z,15.55
2022-09-24T03:58:38.840Z,19.63
2022-09-24T04:01:10.387Z,17.15
2022-09-24T04:03:37.384Z,22.70
2022-09-24T04:06:05.505Z,20.05
2022-09-24T04:08:32.636Z,19.08
2022-09-24T04:10:59.267Z,18.25
2022-09-24T04:13:25.995Z,15.43
2022-09-24T04:15:53.572Z,22.42
2022-09-24T04:18:20.704Z,19.98
2022-09-24T04:20:47.450Z,35.28
2022-09-24T04:23:14.403Z,17.02
2022-09-24T04:25:40.898Z,21.85
2022-09-24T04:28:09.329Z,25.20
2022-09-24T04:30:36.689Z,20.48
2022-09-24T04:33:03.682Z,24.85
2022-09-24T04:35:32.859Z,22.38
2022-09-24T04:38:00.171Z,24.13
2022-09-24T04:40:27.346Z,18.45
2022-09-24T04:42:54.150Z,19.95
2022-09-24T04:45:21.682Z,22.20
2022-09-24T04:47:58.506Z,23.90
2022-09-24T04:50:27.250Z,30.92
2022-09-24T04:52:55.195Z,24.35
2022-09-24T04:55:23.058Z,27.38
2022-09-24T04:57:50.275Z,25.52
2022-09-24T05:00:19.650Z,22.88
2022-09-24T05:02:46.797Z,26.02
2022-09-24T05:05:13.937Z,27.45
2022-09-24T05:07:41.813Z,24.98
2022-09-24T05:10:08.572Z,22.20
2022-09-24T05:12:36.213Z,21.48
2022-09-24T05:15:03.677Z,24.60
2022-09-24T05:17:30.344Z,26.38
2022-09-24T05:19:57.909Z,24.67
2022-09-24T05:22:28.018Z,23.75
2022-09-24T05:24:54.545Z,29.10
2022-09-24T05:27:23.055Z,26.73
2022-09-24T05:29:50.394Z,27.40
2022-09-24T05:32:18.979Z,25.27
2022-09-24T05:34:46.549Z,29.65
2022-09-24T05:37:14.392Z,25.88
2022-09-24T05:39:41.062Z,21.92
2022-09-24T05:42:10.264Z,19.83
2022-09-24T05:44:37.250Z,23.13
2022-09-24T05:47:03.718Z,25.23
2022-09-24T05:49:30.152Z,28.83
2022-09-24T05:51:56.883Z,19.52
2022-09-24T05:54:23.369Z,19.65
2022-09-24T05:56:49.800Z,29.60
2022-09-24T05:59:16.304Z,24.88
2022-09-24T06:01:42.818Z,19.70
2022-09-24T06:04:11.378Z,19.85
2022-09-24T06:06:38.216Z,23.45
2022-09-24T06:09:05.499Z,16.42
2022-09-24T06:11:39.642Z,15.88
2022-09-24T06:14:08.360Z,17.45
2022-09-24T06:16:35.081Z,16.45
2022-09-24T06:19:01.760Z,18.52
2022-09-24T06:21:28.359Z,21.98
2022-09-24T06:23:54.850Z,20.50
2022-09-24T06:26:21.445Z,24.80
2022-09-24T06:28:47.914Z,20.75
2022-09-24T06:31:14.603Z,24.08
2022-09-24T06:33:41.169Z,25.05
2022-09-24T06:36:08.033Z,23.15
2022-09-24T06:38:35.265Z,25.02
2022-09-24T06:41:04.482Z,27.77
2022-09-24T06:43:32.332Z,27.23
2022-09-24T06:45:59.986Z,29.63
2022-09-24T06:48:27.506Z,26.77
2022-09-24T06:50:54.760Z,28.67
2022-09-24T06:53:21.266Z,33.85
2022-09-24T06:55:48.848Z,30.92
2022-09-24T06:58:20.876Z,33.70
2022-09-24T07:00:58.854Z,32.20
2022-09-24T07:03:27.039Z,32.40
2022-09-24T07:05:54.031Z,34.17
2022-09-24T07:08:20.709Z,30.73
2022-09-24T07:10:52.409Z,28.83
2022-09-24T07:13:21.077Z,30.30
2022-09-24T07:15:49.622Z,28.20
2022-09-24T07:18:17.194Z,32.30
2022-09-24T07:20:43.592Z,35.00
2022-09-24T07:23:11.391Z,30.40
2022-09-24T07:25:38.606Z,27.52
2022-09-24T07:28:08.009Z,22.67
2022-09-24T07:30:35.147Z,33.15
2022-09-24T07:33:01.659Z,25.65
2022-09-24T07:35:29.055Z,28.50
2022-09-24T07:38:05.015Z,30.17
2022-09-24T07:40:32.671Z,30.00
2022-09-24T07:43:00.517Z,31.38
2022-09-24T07:45:29.358Z,31.60
2022-09-24T07:48:01.377Z,39.97
2022-09-24T07:50:30.283Z,37.10
2022-09-24T07:52:57.115Z,35.83
2022-09-24T07:55:25.648Z,39.70
2022-09-24T07:57:54.966Z,32.47
2022-09-24T08:00:23.783Z,36.22
2022-09-24T08:02:51.878Z,44.60
2022-09-24T08:05:18.493Z,43.47
2022-09-24T08:07:52.611Z,33.35
2022-09-24T08:10:19.504Z,35.88
2022-09-24T08:12:45.968Z,35.83
2022-09-24T08:15:12.417Z,40.85
2022-09-24T08:17:38.943Z,42.28
2022-09-24T08:20:05.908Z,36.95
2022-09-24T08:22:33.427Z,38.17
2022-09-24T08:25:00.280Z,38.30
2022-09-24T08:27:27.841Z,40.25
2022-09-24T08:29:54.317Z,41.20
2022-09-24T08:32:20.780Z,42.88
2022-09-24T08:34:47.208Z,39.58
2022-09-24T08:37:13.781Z,38.92
2022-09-24T08:39:40.293Z,36.10
2022-09-24T08:42:13.616Z,41.15
2022-09-24T08:45:01.792Z,43.83
2022-09-24T08:47:39.062Z,43.25
2022-09-24T08:50:17.259Z,38.30
2022-09-24T08:52:43.650Z,37.97
2022-09-24T08:55:16.168Z,38.15
2022-09-24T08:58:11.653Z,38.80
2022-09-24T09:01:04.880Z,36.13
2022-09-24T09:03:44.059Z,34.45
2022-09-24T09:06:28.581Z,31.02
2022-09-24T09:09:18.155Z,39.88
2022-09-24T09:11:48.847Z,34.65
2022-09-24T09:14:42.138Z,33.33
2022-09-24T09:17:27.339Z,31.48
2022-09-24T09:19:57.019Z,35.13
2022-09-24T09:22:28.923Z,35.53
2022-09-24T09:25:04.156Z,36.38
2022-09-24T09:27:31.354Z,33.80
2022-09-24T09:30:02.828Z,36.97
2022-09-24T09:33:02.951Z,37.15
2022-09-24T09:35:38.905Z,32.20
2022-09-24T09:38:32.363Z,38.78
2022-09-24T09:41:29.577Z,33.40
2022-09-24T09:44:02.617Z,35.70
2022-09-24T09:46:38.775Z,41.13
2022-09-24T09:49:07.001Z,43.92
2022-09-24T09:51:41.221Z,43.95
2022-09-24T09:54:08.184Z,43.97
2022-09-24T09:56:43.838Z,46.03
2022-09-24T09:59:13.290Z,46.53
2022-09-24T10:01:42.450Z,49.90
2022-09-24T10:04:34.440Z,49.85
2022-09-24T10:07:06.950Z,42.58
2022-09-24T10:09:34.116Z,48.60
2022-09-24T10:12:08.854Z,45.17
2022-09-24T10:14:35.791Z,77.22
2022-09-24T10:17:06.434Z,108.07
2022-09-24T10:19:36.437Z,45.85
2022-09-24T10:22:16.386Z,51.85
2022-09-24T10:24:43.748Z,44.42
2022-09-24T10:27:19.160Z,42.63
2022-09-24T10:30:03.960Z,44.53
2022-09-24T10:32:30.595Z,47.47
2022-09-24T10:35:01.018Z,46.45
2022-09-24T10:37:29.113Z,44.13
2022-09-24T10:40:12.472Z,46.10
2022-09-24T10:42:39.055Z,43.40
2022-09-24T10:45:12.718Z,44.15
2022-09-24T10:47:53.465Z,44.67
2022-09-24T10:50:33.064Z,47.67
2022-09-24T10:53:17.479Z,46.30
2022-09-24T10:55:56.176Z,52.70
2022-09-24T10:59:03.056Z,48.78
2022-09-24T11:01:52.040Z,51.63
2022-09-24T11:04:25.558Z,55.90
2022-09-24T11:06:57.673Z,47.63
2022-09-24T11:09:40.711Z,50.10
2022-09-24T11:12:22.224Z,49.42
2022-09-24T11:15:19.266Z,46.72
2022-09-24T11:18:24.653Z,53.05
2022-09-24T11:21:03.278Z,51.33
2022-09-24T11:23:55.634Z,48.40
2022-09-24T11:26:40.686Z,48.80
2022-09-24T11:29:51.261Z,50.75
2022-09-24T11:32:21.015Z,49.42
2022-09-24T11:34:50.538Z,51.28
2022-09-24T11:37:30.763Z,48.88
2022-09-24T11:40:21.969Z,56.20
2022-09-24T11:43:07.693Z,51.67
2022-09-24T11:46:11.931Z,46.55
2022-09-24T11:49:00.876Z,50.97
2022-09-24T11:51:49.571Z,48.55
2022-09-24T11:54:30.119Z,45.13
2022-09-24T11:57:04.130Z,48.00
2022-09-24T11:59:56.548Z,47.45
2022-09-24T12:02:35.543Z,52.92
2022-09-24T12:05:19.754Z,47.92
2022-09-24T12:07:53.830Z,45.22
2022-09-24T12:10:35.066Z,44.65
2022-09-24T12:13:19.586Z,50.78
2022-09-24T12:15:50.377Z,50.20
2022-09-24T12:18:34.582Z,55.03
2022-09-24T12:21:07.149Z,47.78
2022-09-24T12:23:39.562Z,46.53
2022-09-24T12:26:07.704Z,45.75
2022-09-24T12:29:02.313Z,48.03
2022-09-24T12:31:59.659Z,39.17
2022-09-24T12:34:54.740Z,46.92
2022-09-24T12:37:27.459Z,51.97
2022-09-24T12:40:14.800Z,43.00
2022-09-24T12:42:47.165Z,40.67
2022-09-24T12:45:22.192Z,45.70
2022-09-24T12:47:53.561Z,46.22
2022-09-24T12:50:33.609Z,40.75
2022-09-24T12:53:00.247Z,40.97
2022-09-24T12:55:30.073Z,39.35
2022-09-24T12:58:08.338Z,39.63
2022-09-24T13:00:47.134Z,40.47
2022-09-24T13:03:33.235Z,42.55
2022-09-24T13:06:00.315Z,41.00
2022-09-24T13:08:36.449Z,42.67
2022-09-24T13:11:23.343Z,43.50
2022-09-24T13:13:59.860Z,41.25
2022-09-24T13:16:26.543Z,40.53
2022-09-24T13:18:56.171Z,40.53
2022-09-24T13:21:25.939Z,40.30
2022-09-24T13:23:53.168Z,45.75
2022-09-24T13:26:29.214Z,48.55
2022-09-24T13:29:01.430Z,45.20
2022-09-24T13:31:27.872Z,44.13
2022-09-24T13:34:09.663Z,39.20
2022-09-24T13:36:44.096Z,41.88
2022-09-24T13:39:19.987Z,47.03
2022-09-24T13:42:25.442Z,43.75
2022-09-24T13:45:00.324Z,38.22
2022-09-24T13:47:31.811Z,38.95
2022-09-24T13:50:27.243Z,40.42
2022-09-24T13:52:55.681Z,38.80
2022-09-24T13:55:33.033Z,46.53
2022-09-24T13:57:59.785Z,42.78
2022-09-24T14:00:28.123Z,51.08
2022-09-24T14:03:05.134Z,47.50
2022-09-24T14:05:38.303Z,51.88
2022-09-24T14:08:12.847Z,50.58
2022-09-24T14:10:40.751Z,52.58
2022-09-24T14:13:22.586Z,54.13
2022-09-24T14:16:10.296Z,51.47
2022-09-24T14:18:37.147Z,52.50
2022-09-24T14:21:23.859Z,48.67
2022-09-24T14:23:57.029Z,55.05
2022-09-24T14:26:31.939Z,51.65
2022-09-24T14:29:01.332Z,52.58
2022-09-24T14:31:28.139Z,43.92
2022-09-24T14:33:55.090Z,54.55
2022-09-24T14:36:27.988Z,44.67
2022-09-24T14:39:01.531Z,40.60
2022-09-24T14:41:37.244Z,45.38
2022-09-24T14:44:15.583Z,44.92
2022-09-24T14:46:49.504Z,41.30
2022-09-24T14:49:25.634Z,40.47
2022-09-24T14:51:58.927Z,39.03
2022-09-24T14:54:41.028Z,41.05
2022-09-24T14:57:19.749Z,46.45
2022-09-24T14:59:47.214Z,45.17
2022-09-24T15:02:19.554Z,47.67
2022-09-24T15:04:49.597Z,48.88
2022-09-24T15:07:18.613Z,50.28
2022-09-24T15:09:53.034Z,48.10
2022-09-24T15:12:30.708Z,46.05
2022-09-24T15:15:00.053Z,47.70
2022-09-24T15:17:31.724Z,53.22
2022-09-24T15:19:58.823Z,54.83
2022-09-24T15:22:26.884Z,45.03
2022-09-24T15:25:00.254Z,50.28
2022-09-24T15:27:31.405Z,50.50
2022-09-24T15:30:04.594Z,50.58
2022-09-24T15:32:33.625Z,48.50
2022-09-24T15:35:00.433Z,55.88
2022-09-24T15:37:29.556Z,50.15
2022-09-24T15:39:58.966Z,45.17
2022-09-24T15:42:26.701Z,45.67
2022-09-24T15:44:54.561Z,47.00
2022-09-24T15:47:21.339Z,45.75
2022-09-24T15:49:47.942Z,48.20
2022-09-24T15:52:16.902Z,47.67
2022-09-24T15:54:43.350Z,50.90
2022-09-24T15:57:12.705Z,47.25
2022-09-24T15:59:40.267Z,47.53
2022-09-24T16:02:21.556Z,42.90
2022-09-24T16:04:48.151Z,38.70
2022-09-24T16:07:14.658Z,53.25
2022-09-24T16:09:41.102Z,73.38
2022-09-24T16:12:07.550Z,45.72
2022-09-24T16:14:34.187Z,42.60
2022-09-24T16:17:00.724Z,39.13
2022-09-24T16:19:27.280Z,46.45
2022-09-24T16:21:53.787Z,45.17
2022-09-24T16:24:20.339Z,45.92
2022-09-24T16:26:46.853Z,49.63
2022-09-24T16:29:13.408Z,54.28
2022-09-24T16:31:40.015Z,51.70
2022-09-24T16:34:06.526Z,49.78
2022-09-24T16:36:33.075Z,56.28
2022-09-24T16:39:00.708Z,54.35
2022-09-24T16:41:27.292Z,61.88
2022-09-24T16:43:56.830Z,55.78
2022-09-24T16:46:23.489Z,44.83
2022-09-24T16:48:50.321Z,46.88
2022-09-24T16:51:17.320Z,43.85
2022-09-24T16:53:48.334Z,53.97
2022-09-24T16:56:17.241Z,49.88
2022-09-24T16:58:45.726Z,48.92
2022-09-24T17:01:15.744Z,55.10
2022-09-24T17:03:42.675Z,46.10
2022-09-24T17:06:18.145Z,47.30
2022-09-24T17:09:03.386Z,53.15
2022-09-24T17:11:29.962Z,57.80
2022-09-24T17:13:57.183Z,57.45
2022-09-24T17:16:24.956Z,56.30
2022-09-24T17:18:54.272Z,51.65
2022-09-24T17:21:21.885Z,51.85
2022-09-24T17:23:49.237Z,50.42
2022-09-24T17:26:18.972Z,54.75
2022-09-24T17:28:46.954Z,55.80
2022-09-24T17:31:16.493Z,54.80
2022-09-24T17:33:44.192Z,54.58
2022-09-24T17:36:12.629Z,79.78
2022-09-24T17:38:39.973Z,69.22
2022-09-24T17:41:08.731Z,59.75
2022-09-24T17:43:35.920Z,72.80
2022-09-24T17:46:14.193Z,75.07
2022-09-24T17:48:44.439Z,68.85
2022-09-24T17:51:14.161Z,66.68
2022-09-24T17:53:40.802Z,72.63
2022-09-24T17:56:09.829Z,74.20
2022-09-24T17:58:38.464Z,79.55
2022-09-24T18:01:07.472Z,72.68
2022-09-24T18:03:34.089Z,82.70
2022-09-24T18:06:02.819Z,81.28
2022-09-24T18:08:29.343Z,79.78
2022-09-24T18:11:10.919Z,84.18
2022-09-24T18:13:37.842Z,82.70
2022-09-24T18:16:11.375Z,81.18
2022-09-24T18:18:38.656Z,79.55
2022-09-24T18:21:07.576Z,86.85
2022-09-24T18:23:34.980Z,72.13
2022-09-24T18:26:13.689Z,89.18
2022-09-24T18:28:42.713Z,79.45
2022-09-24T18:31:10.769Z,76.38
2022-09-24T18:33:40.241Z,84.95
2022-09-24T18:36:10.223Z,83.05
2022-09-24T18:38:37.155Z,79.15
2022-09-24T18:41:10.386Z,84.07
2022-09-24T18:43:37.584Z,88.28
2022-09-24T18:46:14.841Z,75.75
2022-09-24T18:48:43.852Z,74.55
2022-09-24T18:51:20.879Z,91.90
2022-09-24T18:53:55.869Z,80.25
2022-09-24T18:56:24.038Z,71.80
2022-09-24T18:59:05.827Z,71.70
2022-09-24T19:01:35.424Z,77.93
2022-09-24T19:04:02.736Z,83.53
2022-09-24T19:06:30.030Z,94.00
2022-09-24T19:08:56.608Z,82.60
2022-09-24T19:11:23.070Z,85.28
2022-09-24T19:13:51.987Z,85.13
2022-09-24T19:16:20.557Z,83.60
2022-09-24T19:18:47.091Z,83.50
2022-09-24T19:21:15.392Z,87.90
2022-09-24T19:23:47.654Z,93.38
2022-09-24T19:26:25.782Z,82.57
2022-09-24T19:28:52.751Z,89.70
2022-09-24T19:31:30.967Z,86.50
2022-09-24T19:34:00.043Z,78.45
2022-09-24T19:36:26.467Z,72.40
2022-09-24T19:38:53.093Z,75.28
2022-09-24T19:41:26.224Z,77.97
2022-09-24T19:43:55.013Z,79.05
2022-09-24T19:46:26.228Z,80.75
2022-09-24T19:48:54.720Z,74.40
2022-09-24T19:51:26.818Z,67.47
2022-09-24T19:54:02.202Z,73.28
2022-09-24T19:56:29.504Z,64.45
2022-09-24T19:58:57.757Z,65.63
2022-09-24T20:01:27.995Z,64.22
2022-09-24T20:03:55.207Z,62.33
2022-09-24T20:06:23.773Z,67.38
2022-09-24T20:08:50.802Z,62.72
2022-09-24T20:11:20.313Z,61.40
2022-09-24T20:13:48.244Z,69.00
2022-09-24T20:16:19.429Z,58.80
2022-09-24T20:18:47.344Z,57.70
2022-09-24T20:21:17.062Z,58.47
2022-09-24T20:23:45.088Z,53.22
2022-09-24T20:26:31.007Z,57.35
2022-09-24T20:28:57.851Z,60.10
2022-09-24T20:31:25.286Z,50.72
2022-09-24T20:33:52.626Z,53.72
2022-09-24T20:36:24.092Z,47.80
2022-09-24T20:38:52.087Z,55.83
2022-09-24T20:41:21.154Z,53.55
2022-09-24T20:43:47.676Z,57.92
2022-09-24T20:46:25.440Z,58.42
2022-09-24T20:48:53.037Z,49.88
2022-09-24T20:51:21.581Z,50.47
2022-09-24T20:53:49.229Z,53.20
2022-09-24T20:56:17.546Z,53.53
2022-09-24T20:58:44.928Z,72.10
2022-09-24T21:01:11.745Z,127.15
2022-09-24T21:03:44.327Z,60.63
2022-09-24T21:06:12.568Z,49.83
2022-09-24T21:08:41.290Z,55.20
2022-09-24T21:11:19.622Z,55.22
2022-09-24T21:13:51.786Z,51.88
2022-09-24T21:16:21.075Z,50.80
2022-09-24T21:18:48.910Z,59.50
2022-09-24T21:21:30.946Z,54.63
2022-09-24T21:24:01.633Z,59.05
2022-09-24T21:26:34.172Z,53.85
2022-09-24T21:29:08.971Z,57.22
2022-09-24T21:31:37.322Z,58.80
2022-09-24T21:34:04.855Z,66.47
2022-09-24T21:36:37.515Z,58.55
2022-09-24T21:39:14.367Z,60.78
2022-09-24T21:41:40.899Z,62.10
2022-09-24T21:44:08.972Z,66.10
2022-09-24T21:46:35.863Z,58.05
2022-09-24T21:49:02.764Z,56.63
2022-09-24T21:51:30.144Z,63.78
2022-09-24T21:54:02.619Z,59.22
2022-09-24T21:56:31.291Z,63.92
2022-09-24T21:58:58.834Z,55.67
2022-09-24T22:01:28.525Z,48.28
2022-09-24T22:03:59.895Z,54.03
2022-09-24T22:06:28.895Z,59.25
2022-09-24T22:08:57.883Z,48.30
2022-09-24T22:11:26.273Z,51.00
2022-09-24T22:13:54.060Z,53.75
2022-09-24T22:16:21.507Z,53.97
2022-09-24T22:18:48.059Z,49.65
2022-09-24T22:21:15.589Z,47.13
2022-09-24T22:23:42.361Z,52.50
2022-09-24T22:26:09.988Z,54.05
2022-09-24T22:28:37.784Z,48.00
2022-09-24T22:31:08.223Z,45.85
2022-09-24T22:33:53.752Z,45.35
2022-09-24T22:36:20.757Z,48.58
2022-09-24T22:38:50.327Z,52.75
2022-09-24T22:41:16.821Z,49.90
2022-09-24T22:43:43.303Z,53.22
2022-09-24T22:46:11.706Z,59.15
2022-09-24T22:48:38.348Z,50.47
2022-09-24T22:51:06.461Z,50.15
2022-09-24T22:53:35.005Z,49.40
2022-09-24T22:56:05.783Z,43.70
2022-09-24T22:58:33.751Z,44.60
2022-09-24T23:01:15.827Z,48.03
2022-09-24T23:03:44.036Z,43.00
2022-09-24T23:06:11.880Z,45.13
2022-09-24T23:08:40.624Z,55.63
2022-09-24T23:11:12.269Z,52.40
2022-09-24T23:13:41.156Z,51.17
2022-09-24T23:16:17.415Z,49.60
2022-09-24T23:18:46.326Z,49.38
2022-09-24T23:21:15.718Z,42.53
2022-09-24T23:23:43.542Z,41.47
2022-09-24T23:26:16.589Z,43.92
2022-09-24T23:28:45.342Z,37.72
2022-09-24T23:31:14.434Z,39.80
2022-09-24T23:33:42.401Z,37.03
2022-09-24T23:36:11.445Z,48.15
2022-09-24T23:38:40.270Z,46.78
2022-09-24T23:41:08.510Z,57.92
2022-09-24T23:43:35.905Z,52.15
2022-09-24T23:46:03.141Z,54.22
2022-09-24T23:48:30.474Z,48.33
2022-09-24T23:50:58.268Z,57.33
2022-09-24T23:53:25.148Z,52.53
2022-09-24T23:55:53.065Z,50.05
2022-09-24T23:58:21.200Z,50.50
